Strona główna
METAR-TAF:

METAR-TAF

Lotnisko :

Port lotniczy Bamako

Bamako, Mali

Szerokość geograficzna: 12-32N, Długość geograficzna: 007-57W, wysokość: 380 m

Aktualna obserwacja pogody

Raport powstał 27 minut temu, godzina 22:30 UTC
Wiatr 1 kt z kierunków zmiennych
Temperatura 30°C
Wilgotność 19%
Ciśnienie 1013 hPa
Widzialność 10 km lub więcej
Brak chmur poniżej 1500 m i brak chmur cumulonimbus

METAR: GABS 062230Z VRB01KT CAVOK 30/04 Q1013 NOSIG

czas: 22:57 (22:57 UTC)

Prognoza

Raport powstał 5 godziny i 57 minut temu, godzina 17:00 UTC
Prognoza ważna od 06 godzina 18 UTC do 07 godzina 24 UTC
Wiatr 10 kt od północny wschód
Widzialność 10 km lub więcej
Brak chmur poniżej 1500 m i brak chmur cumulonimbus

TAF: GABS 061700Z 0618/0724 04010KT CAVOK

Obserwacja i prognoza pogody dla ponad 4000 lotnisk (raport METAR i TAF).

Dostępne stacje oznaczono żółtymi i czerwonymi punktami na mapie.

Najedź kursorem aby zobaczyć nazwę stacji.

Kliknij aby zobaczyć obserwacje i prognozy pogody.

Aby zmienić mapę: kliknij na zielony przycisk z czarnym krzyżykiem, aby powiększyć; na zielony przycisk z myślnikiem, aby pomniejszyć; na zielone strzałki, aby przejść do map sąsiednich.


METAR-TAF: